createdAt,value
2022-09-30T00:01:29.422Z,13.30
2022-09-30T00:03:57.840Z,13.30
2022-09-30T00:06:26.655Z,13.30
2022-09-30T00:08:54.129Z,13.30
2022-09-30T00:11:25.736Z,13.30
2022-09-30T00:13:54.028Z,13.40
2022-09-30T00:16:23.806Z,13.30
2022-09-30T00:18:51.497Z,13.40
2022-09-30T00:21:19.008Z,13.30
2022-09-30T00:23:46.572Z,13.30
2022-09-30T00:26:17.183Z,13.30
2022-09-30T00:28:46.422Z,13.30
2022-09-30T00:31:16.032Z,13.30
2022-09-30T00:33:44.040Z,13.30
2022-09-30T00:36:11.322Z,13.30
2022-09-30T00:38:38.336Z,13.30
2022-09-30T00:41:05.441Z,13.30
2022-09-30T00:43:51.698Z,13.30
2022-09-30T00:46:20.719Z,13.30
2022-09-30T00:48:54.013Z,13.30
2022-09-30T00:51:29.167Z,13.30
2022-09-30T00:54:00.710Z,13.30
2022-09-30T00:56:37.141Z,13.30
2022-09-30T00:59:14.908Z,13.30
2022-09-30T01:01:42.674Z,13.20
2022-09-30T01:04:20.819Z,13.20
2022-09-30T01:06:48.095Z,13.20
2022-09-30T01:09:15.565Z,13.20
2022-09-30T01:11:42.515Z,13.20
2022-09-30T01:14:16.905Z,13.30
2022-09-30T01:16:44.205Z,13.20
2022-09-30T01:19:37.576Z,13.20
2022-09-30T01:22:23.368Z,13.20
2022-09-30T01:25:36.842Z,13.20
2022-09-30T01:28:20.490Z,13.20
2022-09-30T01:30:57.007Z,13.20
2022-09-30T01:33:32.768Z,13.20
2022-09-30T01:36:38.411Z,13.20
2022-09-30T01:39:14.731Z,13.10
2022-09-30T01:41:44.599Z,13.10
2022-09-30T01:44:23.943Z,13.10
2022-09-30T01:47:27.688Z,13.00
2022-09-30T01:50:07.437Z,13.00
2022-09-30T01:52:43.929Z,13.00
2022-09-30T01:55:24.910Z,13.00
2022-09-30T01:58:30.460Z,12.90
2022-09-30T02:01:01.236Z,12.90
2022-09-30T02:03:51.821Z,12.90
2022-09-30T02:06:26.794Z,12.90
2022-09-30T02:09:08.032Z,12.80
2022-09-30T02:11:36.898Z,12.80
2022-09-30T02:14:19.804Z,12.80
2022-09-30T02:17:02.768Z,12.70
2022-09-30T02:20:01.262Z,12.70
2022-09-30T02:22:44.034Z,12.60
2022-09-30T02:25:19.221Z,12.70
2022-09-30T02:27:55.295Z,12.60
2022-09-30T02:30:22.333Z,12.60
2022-09-30T02:32:50.873Z,12.60
2022-09-30T02:35:32.417Z,12.60
2022-09-30T02:38:05.724Z,12.50
2022-09-30T02:40:39.966Z,12.50
2022-09-30T02:43:09.241Z,12.50
2022-09-30T02:45:47.916Z,12.50
2022-09-30T02:48:32.078Z,12.50
2022-09-30T02:51:21.737Z,12.50
2022-09-30T02:54:17.871Z,12.50
2022-09-30T02:57:18.886Z,12.50
2022-09-30T02:59:52.753Z,12.50
2022-09-30T03:02:21.439Z,12.50
2022-09-30T03:04:51.430Z,12.50
2022-09-30T03:07:19.816Z,12.50
2022-09-30T03:09:46.886Z,12.50
2022-09-30T03:12:26.779Z,12.50
2022-09-30T03:15:03.132Z,12.40
2022-09-30T03:17:38.111Z,12.40
2022-09-30T03:20:32.884Z,12.40
2022-09-30T03:23:21.433Z,12.40
2022-09-30T03:26:18.254Z,12.40
2022-09-30T03:29:04.033Z,12.30
2022-09-30T03:31:39.671Z,12.40
2022-09-30T03:34:13.474Z,12.40
2022-09-30T03:36:41.381Z,12.30
2022-09-30T03:39:28.911Z,12.30
2022-09-30T03:42:13.321Z,12.30
2022-09-30T03:44:59.285Z,12.30
2022-09-30T03:47:27.463Z,12.30
2022-09-30T03:50:00.516Z,12.30
2022-09-30T03:52:31.325Z,12.30
2022-09-30T03:55:00.827Z,12.30
2022-09-30T03:57:29.460Z,12.20
2022-09-30T04:00:00.563Z,12.20
2022-09-30T04:02:28.653Z,12.20
2022-09-30T04:04:56.503Z,12.20
2022-09-30T04:07:23.655Z,12.20
2022-09-30T04:09:50.834Z,12.20
2022-09-30T04:12:18.046Z,12.20
2022-09-30T04:14:45.755Z,12.10
2022-09-30T04:17:14.044Z,12.10
2022-09-30T04:19:41.987Z,12.10
2022-09-30T04:22:09.655Z,12.10
2022-09-30T04:24:37.139Z,12.10
2022-09-30T04:27:04.830Z,12.10
2022-09-30T04:29:31.860Z,12.10
2022-09-30T04:31:59.892Z,12.10
2022-09-30T04:34:26.775Z,12.10
2022-09-30T04:36:53.965Z,12.10
2022-09-30T04:39:20.949Z,12.00
2022-09-30T04:41:48.038Z,12.00
2022-09-30T04:44:15.036Z,12.00
2022-09-30T04:46:43.285Z,12.00
2022-09-30T04:49:10.194Z,12.00
2022-09-30T04:51:38.605Z,11.90
2022-09-30T04:54:05.674Z,11.90
2022-09-30T04:56:33.111Z,11.90
2022-09-30T04:59:00.560Z,11.90
2022-09-30T05:01:28.986Z,11.90
2022-09-30T05:03:59.739Z,11.80
2022-09-30T05:06:26.886Z,11.80
2022-09-30T05:08:53.795Z,11.80
2022-09-30T05:11:22.400Z,11.80
2022-09-30T05:13:51.208Z,11.80
2022-09-30T05:16:18.799Z,11.70
2022-09-30T05:18:47.097Z,11.70
2022-09-30T05:21:17.271Z,11.70
2022-09-30T05:23:44.583Z,11.60
2022-09-30T05:26:12.916Z,11.60
2022-09-30T05:28:41.857Z,11.60
2022-09-30T05:31:09.530Z,11.60
2022-09-30T05:33:36.922Z,11.60
2022-09-30T05:36:09.611Z,11.60
2022-09-30T05:38:37.872Z,11.50
2022-09-30T05:41:11.623Z,11.50
2022-09-30T05:43:47.980Z,11.50
2022-09-30T05:46:16.472Z,11.50
2022-09-30T05:48:44.099Z,11.50
2022-09-30T05:51:11.657Z,11.60
2022-09-30T05:53:40.258Z,11.60
2022-09-30T05:56:09.054Z,11.70
2022-09-30T05:58:37.929Z,11.70
2022-09-30T06:01:15.736Z,11.80
2022-09-30T06:03:47.038Z,11.90
2022-09-30T06:06:18.200Z,11.90
2022-09-30T06:08:47.052Z,12.00
2022-09-30T06:11:19.107Z,12.10
2022-09-30T06:13:47.627Z,12.20
2022-09-30T06:16:16.791Z,12.30
2022-09-30T06:18:44.579Z,12.30
2022-09-30T06:21:14.541Z,12.40
2022-09-30T06:23:43.395Z,12.50
2022-09-30T06:26:13.457Z,12.50
2022-09-30T06:28:41.444Z,12.60
2022-09-30T06:31:09.203Z,12.60
2022-09-30T06:33:36.458Z,12.70
2022-09-30T06:36:04.911Z,12.70
2022-09-30T06:38:37.405Z,12.80
2022-09-30T06:41:04.996Z,12.90
2022-09-30T06:43:37.428Z,12.90
2022-09-30T06:46:17.446Z,12.90
2022-09-30T06:48:47.635Z,12.90
2022-09-30T06:51:14.721Z,13.00
2022-09-30T06:53:41.864Z,13.00
2022-09-30T06:56:09.001Z,13.10
2022-09-30T06:58:36.063Z,13.20
2022-09-30T07:01:07.129Z,13.20
2022-09-30T07:03:36.170Z,13.30
2022-09-30T07:06:05.776Z,13.40
2022-09-30T07:08:34.911Z,13.40
2022-09-30T07:11:04.713Z,13.50
2022-09-30T07:13:33.266Z,13.50
2022-09-30T07:16:00.579Z,13.60
2022-09-30T07:18:28.257Z,13.60
2022-09-30T07:20:57.217Z,13.60
2022-09-30T07:23:28.090Z,13.70
2022-09-30T07:26:03.030Z,13.70
2022-09-30T07:28:33.139Z,13.70
2022-09-30T07:33:59.842Z,13.80
2022-09-30T07:36:33.250Z,13.80
2022-09-30T07:39:06.401Z,13.80
2022-09-30T07:41:37.902Z,13.90
2022-09-30T07:44:08.094Z,13.90
2022-09-30T07:46:39.350Z,14.00
2022-09-30T07:49:09.371Z,14.20
2022-09-30T07:51:39.532Z,14.30
2022-09-30T07:54:13.675Z,14.50
2022-09-30T07:57:05.489Z,14.60
2022-09-30T07:59:31.884Z,14.80
2022-09-30T08:01:59.551Z,14.80
2022-09-30T08:04:28.771Z,14.90
2022-09-30T08:06:59.478Z,15.00
2022-09-30T08:09:29.369Z,15.10
2022-09-30T08:11:58.823Z,15.30
2022-09-30T08:14:27.502Z,15.60
2022-09-30T08:16:57.383Z,15.80
2022-09-30T08:19:26.300Z,16.10
2022-09-30T08:21:54.424Z,16.50
2022-09-30T08:24:23.396Z,16.90
2022-09-30T08:26:51.170Z,17.20
2022-09-30T08:29:20.545Z,17.50
2022-09-30T08:31:52.926Z,17.70
2022-09-30T08:34:20.063Z,17.80
2022-09-30T08:36:47.812Z,18.00
2022-09-30T08:39:14.997Z,18.20
2022-09-30T08:42:09.218Z,18.50
2022-09-30T08:44:51.183Z,18.70
2022-09-30T08:47:39.667Z,19.00
2022-09-30T08:50:32.175Z,19.20
2022-09-30T08:53:06.175Z,19.50
2022-09-30T08:55:45.206Z,19.80
2022-09-30T08:58:27.336Z,20.10
2022-09-30T09:01:03.814Z,20.60
2022-09-30T09:03:31.838Z,21.00
2022-09-30T09:06:21.028Z,21.50
2022-09-30T09:08:56.567Z,22.10
2022-09-30T09:11:32.924Z,22.50
2022-09-30T09:14:18.825Z,23.00
2022-09-30T09:17:10.639Z,23.60
2022-09-30T09:20:06.882Z,23.90
2022-09-30T09:22:36.400Z,24.40
2022-09-30T09:25:04.258Z,24.80
2022-09-30T09:27:45.013Z,25.10
2022-09-30T09:30:15.689Z,25.40
2022-09-30T09:32:47.255Z,25.60
2022-09-30T09:35:29.546Z,25.90
2022-09-30T09:38:25.326Z,26.10
2022-09-30T09:41:09.080Z,26.30
2022-09-30T09:43:55.452Z,26.40
2022-09-30T09:46:28.398Z,26.50
2022-09-30T09:49:13.988Z,26.60
2022-09-30T09:51:47.321Z,26.70
2022-09-30T09:54:21.032Z,26.80
2022-09-30T09:56:48.565Z,26.90
2022-09-30T09:59:19.996Z,26.90
2022-09-30T10:01:53.614Z,27.00
2022-09-30T10:04:30.637Z,27.10
2022-09-30T10:07:29.141Z,27.10
2022-09-30T10:10:23.817Z,27.10
2022-09-30T10:12:51.590Z,27.10
2022-09-30T10:15:26.915Z,27.10
2022-09-30T10:17:59.030Z,27.10
2022-09-30T10:20:37.257Z,27.00
2022-09-30T10:23:29.456Z,27.00
2022-09-30T10:25:57.766Z,27.00
2022-09-30T10:28:28.810Z,27.00
2022-09-30T10:31:05.211Z,27.00
2022-09-30T10:33:42.162Z,27.00
2022-09-30T10:36:14.419Z,27.00
2022-09-30T10:39:30.140Z,27.00
2022-09-30T10:42:25.099Z,27.00
2022-09-30T10:44:57.825Z,27.00
2022-09-30T10:47:27.562Z,27.00
2022-09-30T10:50:17.340Z,27.00
2022-09-30T10:53:16.122Z,26.90
2022-09-30T10:55:46.090Z,26.80
2022-09-30T10:58:38.380Z,26.80
2022-09-30T11:01:14.950Z,26.70
2022-09-30T11:04:05.036Z,26.70
2022-09-30T11:06:37.301Z,26.60
2022-09-30T11:09:20.266Z,26.60
2022-09-30T11:12:02.970Z,26.50
2022-09-30T11:14:39.300Z,26.50
2022-09-30T11:17:50.842Z,26.40
2022-09-30T11:20:23.111Z,26.30
2022-09-30T11:23:10.755Z,26.20
2022-09-30T11:26:22.691Z,26.00
2022-09-30T11:28:49.702Z,25.90
2022-09-30T11:31:19.976Z,25.90
2022-09-30T11:34:14.401Z,25.80
2022-09-30T11:37:03.335Z,25.70
2022-09-30T11:39:58.191Z,25.60
2022-09-30T11:42:25.321Z,25.60
2022-09-30T11:45:19.013Z,25.50
2022-09-30T11:48:11.701Z,25.50
2022-09-30T11:51:04.337Z,25.40
2022-09-30T11:54:04.447Z,25.30
2022-09-30T11:56:49.480Z,25.20
2022-09-30T11:59:37.625Z,25.10
2022-09-30T12:02:12.633Z,25.10
2022-09-30T12:04:44.433Z,25.00
2022-09-30T12:07:21.514Z,24.90
2022-09-30T12:09:51.295Z,24.80
2022-09-30T12:12:19.800Z,24.70
2022-09-30T12:15:00.653Z,24.60
2022-09-30T12:17:37.079Z,24.40
2022-09-30T12:20:29.340Z,24.40
2022-09-30T12:23:25.503Z,24.30
2022-09-30T12:25:56.484Z,24.10
2022-09-30T12:29:22.061Z,24.00
2022-09-30T12:32:10.769Z,23.90
2022-09-30T12:34:53.536Z,23.80
2022-09-30T12:37:41.021Z,23.70
2022-09-30T12:40:19.057Z,23.60
2022-09-30T12:43:05.178Z,23.50
2022-09-30T12:45:59.815Z,23.50
2022-09-30T12:48:40.612Z,23.40
2022-09-30T12:51:08.478Z,23.30
2022-09-30T12:53:40.655Z,23.30
2022-09-30T12:56:11.574Z,23.20
2022-09-30T12:58:49.177Z,23.10
2022-09-30T13:01:16.410Z,23.10
2022-09-30T13:04:16.587Z,23.00
2022-09-30T13:06:46.748Z,23.00
2022-09-30T13:09:17.702Z,22.90
2022-09-30T13:11:48.707Z,22.90
2022-09-30T13:14:25.948Z,22.90
2022-09-30T13:17:08.997Z,22.90
2022-09-30T13:19:41.148Z,22.80
2022-09-30T13:22:38.736Z,22.80
2022-09-30T13:25:16.707Z,22.70
2022-09-30T13:27:45.259Z,22.60
2022-09-30T13:30:18.026Z,22.60
2022-09-30T13:32:47.957Z,22.50
2022-09-30T13:35:33.992Z,22.50
2022-09-30T13:38:13.863Z,22.40
2022-09-30T13:41:01.677Z,22.30
2022-09-30T13:44:03.514Z,22.30
2022-09-30T13:46:52.546Z,22.30
2022-09-30T13:49:41.286Z,22.30
2022-09-30T13:52:29.525Z,22.30
2022-09-30T13:55:03.227Z,22.20
2022-09-30T13:57:59.243Z,22.20
2022-09-30T14:00:32.736Z,22.10
2022-09-30T14:03:35.386Z,22.00
2022-09-30T14:06:15.352Z,22.00
2022-09-30T14:08:57.579Z,21.90
2022-09-30T14:11:53.682Z,21.90
2022-09-30T14:14:45.307Z,21.80
2022-09-30T14:17:30.547Z,21.80
2022-09-30T14:20:28.878Z,21.70
2022-09-30T14:22:56.692Z,21.70
2022-09-30T14:25:24.933Z,21.60
2022-09-30T14:27:58.002Z,21.60
2022-09-30T14:30:27.019Z,21.60
2022-09-30T14:33:02.372Z,21.60
2022-09-30T14:35:32.066Z,21.50
2022-09-30T14:38:14.117Z,21.50
2022-09-30T14:40:48.390Z,21.50
2022-09-30T14:43:20.032Z,21.50
2022-09-30T14:45:55.556Z,21.40
2022-09-30T14:48:24.737Z,21.40
2022-09-30T14:51:00.137Z,21.40
2022-09-30T14:53:31.700Z,21.40
2022-09-30T14:56:00.139Z,21.40
2022-09-30T14:58:30.932Z,21.40
2022-09-30T15:01:03.238Z,21.40
2022-09-30T15:03:33.043Z,21.30
2022-09-30T15:06:00.618Z,21.30
2022-09-30T15:08:27.841Z,21.30
2022-09-30T15:10:56.594Z,21.30
2022-09-30T15:13:29.332Z,21.30
2022-09-30T15:15:56.540Z,21.30
2022-09-30T15:18:28.652Z,21.20
2022-09-30T15:21:03.846Z,21.20
2022-09-30T15:23:33.851Z,21.20
2022-09-30T15:26:01.567Z,21.20
2022-09-30T15:28:32.009Z,21.10
2022-09-30T15:30:59.618Z,21.10
2022-09-30T15:33:29.037Z,21.10
2022-09-30T15:36:08.265Z,21.00
2022-09-30T15:38:37.591Z,21.00
2022-09-30T15:41:10.444Z,21.00
2022-09-30T15:43:42.593Z,21.00
2022-09-30T15:46:35.705Z,20.90
2022-09-30T15:49:29.060Z,20.90
2022-09-30T15:52:16.277Z,20.90
2022-09-30T15:54:43.345Z,20.90
2022-09-30T15:57:40.368Z,20.80
2022-09-30T16:00:32.359Z,20.80
2022-09-30T16:03:18.031Z,20.80
2022-09-30T16:05:49.631Z,20.70
2022-09-30T16:08:29.140Z,20.70
2022-09-30T16:10:59.060Z,20.60
2022-09-30T16:13:30.159Z,20.50
2022-09-30T16:15:59.121Z,20.50
2022-09-30T16:18:32.657Z,20.40
2022-09-30T16:21:04.193Z,20.30
2022-09-30T16:23:37.527Z,20.30
2022-09-30T16:26:21.293Z,20.20
2022-09-30T16:28:48.345Z,20.10
2022-09-30T16:31:16.405Z,20.00
2022-09-30T16:33:45.369Z,20.00
2022-09-30T16:36:15.614Z,19.90
2022-09-30T16:38:43.645Z,19.80
2022-09-30T16:41:13.207Z,19.70
2022-09-30T16:43:40.462Z,19.60
2022-09-30T16:46:09.596Z,19.50
2022-09-30T16:48:38.457Z,19.40
2022-09-30T16:51:15.036Z,19.40
2022-09-30T16:53:42.452Z,19.30
2022-09-30T16:56:20.353Z,19.20
2022-09-30T16:58:49.719Z,19.10
2022-09-30T17:01:23.026Z,19.00
2022-09-30T17:03:50.579Z,18.90
2022-09-30T17:06:20.677Z,18.90
2022-09-30T17:08:50.973Z,18.80
2022-09-30T17:11:19.620Z,18.70
2022-09-30T17:13:46.843Z,18.70
2022-09-30T17:16:14.158Z,18.60
2022-09-30T17:18:41.039Z,18.50
2022-09-30T17:21:08.216Z,18.40
2022-09-30T17:23:35.808Z,18.30
2022-09-30T17:26:07.736Z,18.30
2022-09-30T17:28:36.127Z,18.20
2022-09-30T17:31:03.789Z,18.20
2022-09-30T17:33:36.219Z,18.10
2022-09-30T17:36:08.696Z,18.00
2022-09-30T17:38:36.541Z,18.00
2022-09-30T17:41:23.192Z,17.90
2022-09-30T17:43:50.619Z,17.80
2022-09-30T17:46:21.637Z,17.70
2022-09-30T17:48:52.661Z,17.70
2022-09-30T17:51:19.829Z,17.60
2022-09-30T17:53:48.758Z,17.50
2022-09-30T17:56:22.829Z,17.50
2022-09-30T17:58:50.919Z,17.40
2022-09-30T18:01:20.712Z,17.40
2022-09-30T18:03:48.180Z,17.30
2022-09-30T18:06:15.077Z,17.30
2022-09-30T18:08:42.255Z,17.20
2022-09-30T18:11:10.070Z,17.10
2022-09-30T18:13:37.114Z,17.10
2022-09-30T18:16:08.409Z,17.00
2022-09-30T18:18:36.012Z,17.00
2022-09-30T18:21:03.592Z,16.90
2022-09-30T18:23:30.800Z,16.80
2022-09-30T18:25:58.113Z,16.80
2022-09-30T18:28:25.204Z,16.80
2022-09-30T18:30:52.446Z,16.70
2022-09-30T18:33:21.741Z,16.60
2022-09-30T18:35:51.670Z,16.60
2022-09-30T18:38:19.718Z,16.50
2022-09-30T18:40:46.673Z,16.50
2022-09-30T18:43:14.818Z,16.50
2022-09-30T18:45:44.944Z,16.40
2022-09-30T18:48:12.196Z,16.40
2022-09-30T18:50:39.680Z,16.40
2022-09-30T18:53:10.033Z,16.30
2022-09-30T18:55:38.466Z,16.30
2022-09-30T18:58:06.120Z,16.30
2022-09-30T19:00:34.495Z,16.20
2022-09-30T19:03:01.946Z,16.20
2022-09-30T19:05:29.202Z,16.20
2022-09-30T19:07:56.917Z,16.10
2022-09-30T19:10:25.690Z,16.10
2022-09-30T19:12:53.102Z,16.00
2022-09-30T19:15:21.133Z,16.00
2022-09-30T19:17:50.747Z,15.90
2022-09-30T19:20:19.419Z,15.90
2022-09-30T19:22:46.979Z,15.90
2022-09-30T19:25:16.699Z,15.80
2022-09-30T19:27:44.804Z,15.80
2022-09-30T19:30:14.885Z,15.70
2022-09-30T19:32:43.250Z,15.70
2022-09-30T19:35:12.169Z,15.70
2022-09-30T19:37:43.120Z,15.70
2022-09-30T19:40:21.293Z,15.60
2022-09-30T19:42:50.022Z,15.60
2022-09-30T19:45:24.414Z,15.50
2022-09-30T19:47:52.999Z,15.50
2022-09-30T19:50:19.952Z,15.50
2022-09-30T19:52:55.929Z,15.40
2022-09-30T19:55:25.891Z,15.40
2022-09-30T19:57:53.227Z,15.40
2022-09-30T20:00:20.536Z,15.30
2022-09-30T20:02:47.723Z,15.30
2022-09-30T20:05:14.942Z,15.20
2022-09-30T20:07:42.070Z,15.20
2022-09-30T20:10:09.951Z,15.20
2022-09-30T20:12:37.061Z,15.20
2022-09-30T20:15:23.365Z,15.10
2022-09-30T20:17:50.322Z,15.10
2022-09-30T20:20:36.490Z,15.00
2022-09-30T20:23:04.085Z,15.00
2022-09-30T20:25:32.467Z,15.00
2022-09-30T20:27:59.592Z,14.90
2022-09-30T20:30:30.229Z,14.90
2022-09-30T20:32:58.158Z,14.80
2022-09-30T20:35:25.756Z,14.80
2022-09-30T20:37:54.226Z,14.70
2022-09-30T20:40:21.395Z,14.70
2022-09-30T20:42:48.452Z,14.70
2022-09-30T20:45:18.136Z,14.60
2022-09-30T20:47:46.843Z,14.60
2022-09-30T20:50:13.911Z,14.60
2022-09-30T20:52:41.893Z,14.60
2022-09-30T20:55:09.674Z,14.50
2022-09-30T20:57:36.910Z,14.50
2022-09-30T21:00:04.744Z,14.50
2022-09-30T21:02:31.879Z,14.50
2022-09-30T21:04:59.706Z,14.40
2022-09-30T21:07:28.244Z,14.40
2022-09-30T21:09:55.235Z,14.40
2022-09-30T21:12:22.660Z,14.40
2022-09-30T21:14:50.752Z,14.40
2022-09-30T21:17:18.838Z,14.30
2022-09-30T21:19:46.284Z,14.30
2022-09-30T21:22:13.391Z,14.30
2022-09-30T21:24:41.233Z,14.20
2022-09-30T21:27:10.309Z,14.20
2022-09-30T21:29:38.819Z,14.20
2022-09-30T21:32:06.018Z,14.10
2022-09-30T21:34:34.121Z,14.10
2022-09-30T21:37:02.020Z,14.10
2022-09-30T21:39:29.182Z,14.10
2022-09-30T21:41:56.182Z,14.10
2022-09-30T21:44:23.425Z,14.10
2022-09-30T21:46:50.550Z,14.00
2022-09-30T21:49:23.822Z,14.00
2022-09-30T21:52:07.585Z,14.10
2022-09-30T21:54:35.494Z,14.00
2022-09-30T21:57:02.523Z,14.00
2022-09-30T21:59:30.635Z,14.00
2022-09-30T22:01:57.846Z,14.00
2022-09-30T22:04:24.928Z,14.10
2022-09-30T22:06:52.212Z,14.10
2022-09-30T22:09:19.275Z,14.10
2022-09-30T22:11:48.148Z,14.10
2022-09-30T22:14:15.642Z,14.10
2022-09-30T22:16:44.488Z,14.20
2022-09-30T22:19:12.991Z,14.20
2022-09-30T22:21:41.547Z,14.20
2022-09-30T22:24:10.109Z,14.20
2022-09-30T22:26:38.219Z,14.20
2022-09-30T22:29:11.035Z,14.30
2022-09-30T22:31:39.357Z,14.30
2022-09-30T22:34:26.514Z,14.30
2022-09-30T22:37:12.219Z,14.30
2022-09-30T22:39:39.278Z,14.40
2022-09-30T22:42:07.376Z,14.30
2022-09-30T22:44:36.251Z,14.30
2022-09-30T22:47:06.053Z,14.40
2022-09-30T22:49:33.280Z,14.40
2022-09-30T22:52:04.769Z,14.40
2022-09-30T22:54:33.941Z,14.40
2022-09-30T22:57:02.165Z,14.40
2022-09-30T22:59:29.865Z,14.50
2022-09-30T23:01:57.866Z,14.50
2022-09-30T23:04:28.655Z,14.50
2022-09-30T23:06:56.877Z,14.50
2022-09-30T23:09:24.524Z,14.50
2022-09-30T23:11:54.271Z,14.50
2022-09-30T23:14:22.526Z,14.50
2022-09-30T23:16:50.199Z,14.50
2022-09-30T23:19:17.266Z,14.50
2022-09-30T23:21:44.942Z,14.50
2022-09-30T23:24:12.560Z,14.50
2022-09-30T23:26:39.860Z,14.50
2022-09-30T23:29:10.737Z,14.40
2022-09-30T23:31:38.705Z,14.40
2022-09-30T23:34:06.072Z,14.40
2022-09-30T23:36:35.724Z,14.40
2022-09-30T23:39:04.668Z,14.40
2022-09-30T23:41:32.808Z,14.30
2022-09-30T23:44:01.219Z,14.40
2022-09-30T23:46:28.978Z,14.30
2022-09-30T23:48:56.785Z,14.30
2022-09-30T23:51:24.412Z,14.30
2022-09-30T23:53:51.465Z,14.30
2022-09-30T23:56:19.961Z,14.30
2022-09-30T23:58:47.939Z,14.20
